Land O Lakes, Wisconsin
Current Conditions -  °F | °C
As of 9:35 AM on Friday 28 Nov 2014 (Local Time) from KLNL Reporting Station
Light Snow Light Snow  
Wind Chill:   Ceiling: 1500
Heat Index:   Visibility: 3mi
Dew Point:   Wind: 3mph
Humidity: 84%   Direction: 160°SSE
Pressure: 30.05"   Gusts: NA
Location:  46.1°N, 89.13°W
Report Text: KLNL 281535Z AUTO 16003KT 3SM -SN BKN015 OVC023 M13/M15 A3005 RMK AO2 T11261148
Loading
Personal Weather Stations






























Interactive Weather Map New forecast layout! Learn more

10-Day Weather Forecast

Advertisements
Track Severe Weather on mobile